首页
METAR-TAF:

METAR-TAF

机场 :

里耶卡, 克罗地亚

纬度: 45-13N, 经度: 014-35E, 海拔: 85米

当前天气观测

该预报发布于30分钟前的11:00 UTC
风速4节,风向西转西北,在西之间变化
温度 11°C
湿度 87%
气压 1021 hPa
能見度: 1500
阴天层高于1300英尺
轻雾

METAR: LDRI 261100Z 30004KT 270V360 1500 BR OVC013 11/09 Q1021

时间: 12:30 (11:30 UTC)

预报

该预报发布于5小时和12分钟前的06:18 UTC
预报有效从26日的 06点(UTC)到 27日的 06点(UTC)
风速2节,风向多变
能见度10公里或以上
少量云层高于1500英尺
多云层高于3000英尺
短暂存在
从 26日的 06点(UTC)到 26日的 18点(UTC)
能見度: 2000
多云层高于1000英尺
阴天层高于3000英尺
小雨, 轻雾
几率 40% :
短暂存在
从 26日的 06点(UTC)到 26日的 15点(UTC)
能見度: 0600

TAF: LDRI 260618Z 2606/2706 VRB02KT 9999 FEW015 BKN030 TX11/2613Z TN06/2705Z TEMPO 2606/2618 2000 -RA BR BKN010 OVC030 PROB40 TEMPO 2606/2615 0600 FG

超过4000个机场的气象观测和天气预报(METAR&TAF报告)。

可查询的气象台以黄色和红色小点在地图上表示。

将鼠标移到小点上方,可查看气象台名称。

然后点击查看天气观测和预报。

如需切换地图:点击带黑十字的绿色按钮放大地图;点击带横线的绿色按钮缩小地图;或者点击绿色箭头查看邻近地区的地图。


METAR-TAF: